sensor_id;sensor_type;location;lat;lon;timestamp;P1;durP1;ratioP1;P2;durP2;ratioP2
36923;SDS011;22841;50.252;18.688;2023-03-16T00:01:39;42.78;;;19.95;;
36923;SDS011;22841;50.252;18.688;2023-03-16T00:04:05;44.60;;;18.73;;
36923;SDS011;22841;50.252;18.688;2023-03-16T00:06:31;44.58;;;18.75;;
36923;SDS011;22841;50.252;18.688;2023-03-16T00:08:57;44.80;;;19.67;;
36923;SDS011;22841;50.252;18.688;2023-03-16T00:11:24;50.08;;;19.85;;
36923;SDS011;22841;50.252;18.688;2023-03-16T00:13:50;46.55;;;19.58;;
36923;SDS011;22841;50.252;18.688;2023-03-16T00:16:17;50.88;;;20.00;;
36923;SDS011;22841;50.252;18.688;2023-03-16T00:18:43;49.70;;;19.05;;
36923;SDS011;22841;50.252;18.688;2023-03-16T00:21:09;42.25;;;20.05;;
36923;SDS011;22841;50.252;18.688;2023-03-16T00:23:36;46.15;;;19.83;;
36923;SDS011;22841;50.252;18.688;2023-03-16T00:26:03;44.92;;;21.77;;
36923;SDS011;22841;50.252;18.688;2023-03-16T00:28:31;45.70;;;21.42;;
36923;SDS011;22841;50.252;18.688;2023-03-16T00:31:03;49.55;;;19.35;;
36923;SDS011;22841;50.252;18.688;2023-03-16T00:33:30;56.35;;;21.15;;
36923;SDS011;22841;50.252;18.688;2023-03-16T00:36:00;47.42;;;20.13;;
36923;SDS011;22841;50.252;18.688;2023-03-16T00:38:27;48.55;;;19.60;;
36923;SDS011;22841;50.252;18.688;2023-03-16T00:40:56;47.42;;;20.45;;
36923;SDS011;22841;50.252;18.688;2023-03-16T00:43:22;57.35;;;23.70;;
36923;SDS011;22841;50.252;18.688;2023-03-16T00:45:56;51.58;;;22.08;;
36923;SDS011;22841;50.252;18.688;2023-03-16T00:48:23;50.30;;;23.67;;
36923;SDS011;22841;50.252;18.688;2023-03-16T00:50:50;54.28;;;21.83;;
36923;SDS011;22841;50.252;18.688;2023-03-16T00:53:18;50.72;;;22.33;;
36923;SDS011;22841;50.252;18.688;2023-03-16T00:55:46;55.20;;;24.23;;
36923;SDS011;22841;50.252;18.688;2023-03-16T00:58:12;53.00;;;24.77;;
36923;SDS011;22841;50.252;18.688;2023-03-16T01:00:39;53.90;;;23.33;;
36923;SDS011;22841;50.252;18.688;2023-03-16T01:03:05;43.45;;;22.23;;
36923;SDS011;22841;50.252;18.688;2023-03-16T01:05:31;56.42;;;23.75;;
36923;SDS011;22841;50.252;18.688;2023-03-16T01:07:57;51.45;;;23.95;;
36923;SDS011;22841;50.252;18.688;2023-03-16T01:10:26;50.63;;;25.02;;
36923;SDS011;22841;50.252;18.688;2023-03-16T01:12:52;52.75;;;24.05;;
36923;SDS011;22841;50.252;18.688;2023-03-16T01:15:20;57.08;;;22.98;;
36923;SDS011;22841;50.252;18.688;2023-03-16T01:17:47;52.97;;;23.40;;
36923;SDS011;22841;50.252;18.688;2023-03-16T01:20:13;46.90;;;21.77;;
36923;SDS011;22841;50.252;18.688;2023-03-16T01:22:44;53.35;;;23.65;;
36923;SDS011;22841;50.252;18.688;2023-03-16T01:25:10;53.38;;;23.75;;
36923;SDS011;22841;50.252;18.688;2023-03-16T01:27:37;50.50;;;24.27;;
36923;SDS011;22841;50.252;18.688;2023-03-16T01:30:04;50.13;;;22.67;;
36923;SDS011;22841;50.252;18.688;2023-03-16T01:32:31;52.10;;;23.85;;
36923;SDS011;22841;50.252;18.688;2023-03-16T01:34:58;52.03;;;24.33;;
36923;SDS011;22841;50.252;18.688;2023-03-16T01:37:24;58.78;;;23.73;;
36923;SDS011;22841;50.252;18.688;2023-03-16T01:39:50;56.63;;;24.58;;
36923;SDS011;22841;50.252;18.688;2023-03-16T01:42:16;68.45;;;26.52;;
36923;SDS011;22841;50.252;18.688;2023-03-16T01:44:53;52.88;;;23.25;;
36923;SDS011;22841;50.252;18.688;2023-03-16T01:47:26;52.88;;;24.13;;
36923;SDS011;22841;50.252;18.688;2023-03-16T01:49:53;49.70;;;23.92;;
36923;SDS011;22841;50.252;18.688;2023-03-16T01:52:25;53.47;;;24.17;;
36923;SDS011;22841;50.252;18.688;2023-03-16T01:54:59;48.35;;;22.98;;
36923;SDS011;22841;50.252;18.688;2023-03-16T01:57:31;52.67;;;22.40;;
36923;SDS011;22841;50.252;18.688;2023-03-16T02:00:04;53.55;;;22.23;;
36923;SDS011;22841;50.252;18.688;2023-03-16T02:02:34;47.88;;;23.40;;
36923;SDS011;22841;50.252;18.688;2023-03-16T02:05:05;43.30;;;21.75;;
36923;SDS011;22841;50.252;18.688;2023-03-16T02:07:40;58.70;;;27.05;;
36923;SDS011;22841;50.252;18.688;2023-03-16T02:10:11;51.10;;;24.33;;
36923;SDS011;22841;50.252;18.688;2023-03-16T02:12:39;53.25;;;23.42;;
36923;SDS011;22841;50.252;18.688;2023-03-16T02:15:07;51.45;;;24.77;;
36923;SDS011;22841;50.252;18.688;2023-03-16T02:17:34;46.33;;;23.48;;
36923;SDS011;22841;50.252;18.688;2023-03-16T02:20:05;55.45;;;24.65;;
36923;SDS011;22841;50.252;18.688;2023-03-16T02:22:36;56.47;;;23.83;;
36923;SDS011;22841;50.252;18.688;2023-03-16T02:25:07;50.20;;;23.45;;
36923;SDS011;22841;50.252;18.688;2023-03-16T02:30:28;55.20;;;24.80;;
36923;SDS011;22841;50.252;18.688;2023-03-16T02:32:55;61.78;;;24.73;;
36923;SDS011;22841;50.252;18.688;2023-03-16T02:35:21;50.33;;;24.35;;
36923;SDS011;22841;50.252;18.688;2023-03-16T02:37:47;54.20;;;23.73;;
36923;SDS011;22841;50.252;18.688;2023-03-16T02:40:35;50.42;;;23.15;;
36923;SDS011;22841;50.252;18.688;2023-03-16T02:43:02;56.50;;;25.75;;
36923;SDS011;22841;50.252;18.688;2023-03-16T02:48:04;44.28;;;21.88;;
36923;SDS011;22841;50.252;18.688;2023-03-16T02:50:49;44.67;;;22.17;;
36923;SDS011;22841;50.252;18.688;2023-03-16T02:53:17;48.60;;;21.77;;
36923;SDS011;22841;50.252;18.688;2023-03-16T02:55:44;51.60;;;22.52;;
36923;SDS011;22841;50.252;18.688;2023-03-16T02:58:11;49.83;;;23.27;;
36923;SDS011;22841;50.252;18.688;2023-03-16T03:00:37;56.67;;;23.08;;
36923;SDS011;22841;50.252;18.688;2023-03-16T03:03:04;48.28;;;21.95;;
36923;SDS011;22841;50.252;18.688;2023-03-16T03:05:32;52.22;;;22.02;;
36923;SDS011;22841;50.252;18.688;2023-03-16T03:07:58;45.65;;;22.42;;
36923;SDS011;22841;50.252;18.688;2023-03-16T03:10:25;52.97;;;24.08;;
36923;SDS011;22841;50.252;18.688;2023-03-16T03:12:51;47.97;;;23.30;;
36923;SDS011;22841;50.252;18.688;2023-03-16T03:15:18;45.72;;;23.35;;
36923;SDS011;22841;50.252;18.688;2023-03-16T03:17:44;50.05;;;22.00;;
36923;SDS011;22841;50.252;18.688;2023-03-16T03:20:11;51.53;;;21.50;;
36923;SDS011;22841;50.252;18.688;2023-03-16T03:22:40;52.90;;;23.10;;
36923;SDS011;22841;50.252;18.688;2023-03-16T03:25:10;44.75;;;21.67;;
36923;SDS011;22841;50.252;18.688;2023-03-16T03:27:38;49.95;;;22.55;;
36923;SDS011;22841;50.252;18.688;2023-03-16T03:30:08;47.83;;;20.30;;
36923;SDS011;22841;50.252;18.688;2023-03-16T03:32:35;48.90;;;21.60;;
36923;SDS011;22841;50.252;18.688;2023-03-16T03:35:01;41.97;;;21.85;;
36923;SDS011;22841;50.252;18.688;2023-03-16T03:37:27;49.20;;;21.08;;
36923;SDS011;22841;50.252;18.688;2023-03-16T03:39:53;53.55;;;22.85;;
36923;SDS011;22841;50.252;18.688;2023-03-16T03:42:19;47.47;;;21.95;;
36923;SDS011;22841;50.252;18.688;2023-03-16T03:44:48;50.38;;;21.75;;
36923;SDS011;22841;50.252;18.688;2023-03-16T03:47:16;58.20;;;23.00;;
36923;SDS011;22841;50.252;18.688;2023-03-16T03:49:43;46.70;;;22.83;;
36923;SDS011;22841;50.252;18.688;2023-03-16T03:52:09;52.47;;;22.35;;
36923;SDS011;22841;50.252;18.688;2023-03-16T03:54:35;54.10;;;22.02;;
36923;SDS011;22841;50.252;18.688;2023-03-16T03:57:02;45.55;;;22.45;;
36923;SDS011;22841;50.252;18.688;2023-03-16T03:59:29;47.38;;;20.92;;
36923;SDS011;22841;50.252;18.688;2023-03-16T04:01:56;53.75;;;22.02;;
36923;SDS011;22841;50.252;18.688;2023-03-16T04:04:22;50.53;;;22.00;;
36923;SDS011;22841;50.252;18.688;2023-03-16T04:06:48;42.22;;;20.95;;
36923;SDS011;22841;50.252;18.688;2023-03-16T04:09:15;54.55;;;23.92;;
36923;SDS011;22841;50.252;18.688;2023-03-16T04:11:41;45.38;;;23.65;;
36923;SDS011;22841;50.252;18.688;2023-03-16T04:14:08;52.30;;;22.30;;
36923;SDS011;22841;50.252;18.688;2023-03-16T04:16:34;48.05;;;21.23;;
36923;SDS011;22841;50.252;18.688;2023-03-16T04:19:00;50.70;;;21.95;;
36923;SDS011;22841;50.252;18.688;2023-03-16T04:21:26;54.45;;;22.70;;
36923;SDS011;22841;50.252;18.688;2023-03-16T04:23:52;45.30;;;22.27;;
36923;SDS011;22841;50.252;18.688;2023-03-16T04:26:22;48.72;;;22.17;;
36923;SDS011;22841;50.252;18.688;2023-03-16T04:28:50;48.67;;;20.53;;
36923;SDS011;22841;50.252;18.688;2023-03-16T04:31:17;50.47;;;22.52;;
36923;SDS011;22841;50.252;18.688;2023-03-16T04:33:43;50.53;;;24.73;;
36923;SDS011;22841;50.252;18.688;2023-03-16T04:36:09;51.60;;;24.33;;
36923;SDS011;22841;50.252;18.688;2023-03-16T04:38:36;53.45;;;25.27;;
36923;SDS011;22841;50.252;18.688;2023-03-16T04:41:02;52.45;;;26.63;;
36923;SDS011;22841;50.252;18.688;2023-03-16T04:43:30;45.83;;;24.20;;
36923;SDS011;22841;50.252;18.688;2023-03-16T04:46:00;60.72;;;27.92;;
36923;SDS011;22841;50.252;18.688;2023-03-16T04:48:28;57.38;;;25.52;;
36923;SDS011;22841;50.252;18.688;2023-03-16T04:50:55;62.00;;;28.98;;
36923;SDS011;22841;50.252;18.688;2023-03-16T04:53:21;62.42;;;29.98;;
36923;SDS011;22841;50.252;18.688;2023-03-16T04:55:47;70.15;;;34.20;;
36923;SDS011;22841;50.252;18.688;2023-03-16T04:58:13;88.38;;;43.10;;
36923;SDS011;22841;50.252;18.688;2023-03-16T05:00:39;91.32;;;42.78;;
36923;SDS011;22841;50.252;18.688;2023-03-16T05:03:06;93.75;;;41.80;;
36923;SDS011;22841;50.252;18.688;2023-03-16T05:05:35;81.45;;;41.35;;
36923;SDS011;22841;50.252;18.688;2023-03-16T05:08:02;84.07;;;36.45;;
36923;SDS011;22841;50.252;18.688;2023-03-16T05:10:30;80.07;;;37.88;;
36923;SDS011;22841;50.252;18.688;2023-03-16T05:12:57;79.40;;;37.53;;
36923;SDS011;22841;50.252;18.688;2023-03-16T05:15:24;94.88;;;39.30;;
36923;SDS011;22841;50.252;18.688;2023-03-16T05:17:50;90.07;;;38.83;;
36923;SDS011;22841;50.252;18.688;2023-03-16T05:20:17;86.32;;;38.42;;
36923;SDS011;22841;50.252;18.688;2023-03-16T05:22:43;84.30;;;37.95;;
36923;SDS011;22841;50.252;18.688;2023-03-16T05:25:10;86.15;;;40.33;;
36923;SDS011;22841;50.252;18.688;2023-03-16T05:27:47;82.22;;;38.45;;
36923;SDS011;22841;50.252;18.688;2023-03-16T05:30:15;77.10;;;37.88;;
36923;SDS011;22841;50.252;18.688;2023-03-16T05:32:42;88.25;;;37.13;;
36923;SDS011;22841;50.252;18.688;2023-03-16T05:35:08;92.90;;;39.10;;
36923;SDS011;22841;50.252;18.688;2023-03-16T05:37:38;98.28;;;40.70;;
36923;SDS011;22841;50.252;18.688;2023-03-16T05:40:06;127.45;;;56.05;;
36923;SDS011;22841;50.252;18.688;2023-03-16T05:42:53;133.63;;;52.15;;
36923;SDS011;22841;50.252;18.688;2023-03-16T05:45:20;119.18;;;48.53;;
36923;SDS011;22841;50.252;18.688;2023-03-16T05:47:46;122.20;;;52.42;;
36923;SDS011;22841;50.252;18.688;2023-03-16T05:50:13;137.02;;;55.25;;
36923;SDS011;22841;50.252;18.688;2023-03-16T05:52:41;125.90;;;53.40;;
36923;SDS011;22841;50.252;18.688;2023-03-16T05:55:12;129.40;;;54.58;;
36923;SDS011;22841;50.252;18.688;2023-03-16T05:57:39;112.90;;;51.33;;
36923;SDS011;22841;50.252;18.688;2023-03-16T06:00:07;97.05;;;41.90;;
36923;SDS011;22841;50.252;18.688;2023-03-16T06:02:41;72.15;;;32.38;;
36923;SDS011;22841;50.252;18.688;2023-03-16T06:05:09;66.72;;;27.15;;
36923;SDS011;22841;50.252;18.688;2023-03-16T06:07:35;63.22;;;27.70;;
36923;SDS011;22841;50.252;18.688;2023-03-16T06:10:02;58.10;;;26.27;;
36923;SDS011;22841;50.252;18.688;2023-03-16T06:12:29;52.78;;;24.02;;
36923;SDS011;22841;50.252;18.688;2023-03-16T06:14:56;50.60;;;25.98;;
36923;SDS011;22841;50.252;18.688;2023-03-16T06:17:22;60.92;;;28.17;;
36923;SDS011;22841;50.252;18.688;2023-03-16T06:19:48;55.50;;;26.90;;
36923;SDS011;22841;50.252;18.688;2023-03-16T06:22:14;51.15;;;26.30;;
36923;SDS011;22841;50.252;18.688;2023-03-16T06:24:40;54.33;;;25.42;;
36923;SDS011;22841;50.252;18.688;2023-03-16T06:27:06;50.97;;;25.08;;
36923;SDS011;22841;50.252;18.688;2023-03-16T06:29:32;53.70;;;25.20;;
36923;SDS011;22841;50.252;18.688;2023-03-16T06:31:58;58.28;;;25.83;;
36923;SDS011;22841;50.252;18.688;2023-03-16T06:34:24;58.97;;;25.60;;
36923;SDS011;22841;50.252;18.688;2023-03-16T06:36:50;59.47;;;26.48;;
36923;SDS011;22841;50.252;18.688;2023-03-16T06:39:17;56.63;;;26.60;;
36923;SDS011;22841;50.252;18.688;2023-03-16T06:41:43;61.90;;;25.95;;
36923;SDS011;22841;50.252;18.688;2023-03-16T06:44:09;52.85;;;25.23;;
36923;SDS011;22841;50.252;18.688;2023-03-16T06:46:36;58.90;;;26.95;;
36923;SDS011;22841;50.252;18.688;2023-03-16T06:49:02;64.38;;;28.80;;
36923;SDS011;22841;50.252;18.688;2023-03-16T06:51:29;61.70;;;28.60;;
36923;SDS011;22841;50.252;18.688;2023-03-16T06:53:56;69.65;;;27.80;;
36923;SDS011;22841;50.252;18.688;2023-03-16T06:56:22;63.08;;;28.52;;
36923;SDS011;22841;50.252;18.688;2023-03-16T06:58:49;69.50;;;29.08;;
36923;SDS011;22841;50.252;18.688;2023-03-16T07:01:16;63.90;;;28.70;;
36923;SDS011;22841;50.252;18.688;2023-03-16T07:03:42;66.75;;;29.85;;
36923;SDS011;22841;50.252;18.688;2023-03-16T07:06:08;47.55;;;24.13;;
36923;SDS011;22841;50.252;18.688;2023-03-16T07:08:35;47.97;;;22.25;;
36923;SDS011;22841;50.252;18.688;2023-03-16T07:11:01;57.67;;;24.38;;
36923;SDS011;22841;50.252;18.688;2023-03-16T07:13:27;50.22;;;22.80;;
36923;SDS011;22841;50.252;18.688;2023-03-16T07:15:53;43.15;;;21.48;;
36923;SDS011;22841;50.252;18.688;2023-03-16T07:18:19;42.72;;;19.98;;
36923;SDS011;22841;50.252;18.688;2023-03-16T07:20:45;55.03;;;22.45;;
36923;SDS011;22841;50.252;18.688;2023-03-16T07:23:12;55.80;;;22.77;;
36923;SDS011;22841;50.252;18.688;2023-03-16T07:25:38;57.85;;;24.23;;
36923;SDS011;22841;50.252;18.688;2023-03-16T07:28:04;48.25;;;23.20;;
36923;SDS011;22841;50.252;18.688;2023-03-16T07:30:30;54.63;;;26.02;;
36923;SDS011;22841;50.252;18.688;2023-03-16T07:32:56;62.97;;;26.75;;
36923;SDS011;22841;50.252;18.688;2023-03-16T07:35:22;46.97;;;24.63;;
36923;SDS011;22841;50.252;18.688;2023-03-16T07:37:49;48.72;;;24.25;;
36923;SDS011;22841;50.252;18.688;2023-03-16T07:40:15;54.38;;;22.85;;
36923;SDS011;22841;50.252;18.688;2023-03-16T07:42:41;57.60;;;24.58;;
36923;SDS011;22841;50.252;18.688;2023-03-16T07:45:08;51.92;;;24.08;;
36923;SDS011;22841;50.252;18.688;2023-03-16T07:47:36;53.55;;;24.55;;
36923;SDS011;22841;50.252;18.688;2023-03-16T07:50:03;51.17;;;26.08;;
36923;SDS011;22841;50.252;18.688;2023-03-16T07:52:29;52.88;;;21.90;;
36923;SDS011;22841;50.252;18.688;2023-03-16T07:54:55;47.33;;;22.50;;
36923;SDS011;22841;50.252;18.688;2023-03-16T07:57:21;45.13;;;21.17;;
36923;SDS011;22841;50.252;18.688;2023-03-16T07:59:48;45.90;;;21.67;;
36923;SDS011;22841;50.252;18.688;2023-03-16T08:02:15;47.13;;;24.50;;
36923;SDS011;22841;50.252;18.688;2023-03-16T08:04:43;50.38;;;22.58;;
36923;SDS011;22841;50.252;18.688;2023-03-16T08:07:11;51.13;;;24.10;;
36923;SDS011;22841;50.252;18.688;2023-03-16T08:09:39;37.55;;;17.42;;
36923;SDS011;22841;50.252;18.688;2023-03-16T08:12:06;33.13;;;13.63;;
36923;SDS011;22841;50.252;18.688;2023-03-16T08:14:33;29.60;;;14.80;;
36923;SDS011;22841;50.252;18.688;2023-03-16T08:17:00;31.70;;;15.73;;
36923;SDS011;22841;50.252;18.688;2023-03-16T08:19:27;27.42;;;15.13;;
36923;SDS011;22841;50.252;18.688;2023-03-16T08:21:53;33.60;;;14.10;;
36923;SDS011;22841;50.252;18.688;2023-03-16T08:24:19;29.33;;;14.30;;
36923;SDS011;22841;50.252;18.688;2023-03-16T08:26:46;19.25;;;11.45;;
36923;SDS011;22841;50.252;18.688;2023-03-16T08:29:12;24.30;;;12.88;;
36923;SDS011;22841;50.252;18.688;2023-03-16T08:31:38;33.50;;;14.02;;
36923;SDS011;22841;50.252;18.688;2023-03-16T08:34:07;35.83;;;14.52;;
36923;SDS011;22841;50.252;18.688;2023-03-16T08:36:34;27.92;;;12.52;;
36923;SDS011;22841;50.252;18.688;2023-03-16T08:39:01;16.90;;;9.65;;
36923;SDS011;22841;50.252;18.688;2023-03-16T08:41:30;24.33;;;11.30;;
36923;SDS011;22841;50.252;18.688;2023-03-16T08:43:57;23.85;;;10.73;;
36923;SDS011;22841;50.252;18.688;2023-03-16T08:46:24;26.25;;;12.20;;
36923;SDS011;22841;50.252;18.688;2023-03-16T08:48:50;22.08;;;10.27;;
36923;SDS011;22841;50.252;18.688;2023-03-16T08:51:17;28.20;;;11.45;;
36923;SDS011;22841;50.252;18.688;2023-03-16T08:53:43;24.92;;;10.75;;
36923;SDS011;22841;50.252;18.688;2023-03-16T08:56:10;14.88;;;8.32;;
36923;SDS011;22841;50.252;18.688;2023-03-16T08:58:39;23.08;;;10.82;;
36923;SDS011;22841;50.252;18.688;2023-03-16T09:01:10;15.67;;;9.73;;
36923;SDS011;22841;50.252;18.688;2023-03-16T09:03:42;24.92;;;10.57;;
36923;SDS011;22841;50.252;18.688;2023-03-16T09:06:10;18.42;;;9.38;;
36923;SDS011;22841;50.252;18.688;2023-03-16T09:08:39;22.88;;;9.88;;
36923;SDS011;22841;50.252;18.688;2023-03-16T09:11:06;20.88;;;10.70;;
36923;SDS011;22841;50.252;18.688;2023-03-16T09:13:37;21.98;;;9.93;;
36923;SDS011;22841;50.252;18.688;2023-03-16T09:16:05;15.70;;;8.57;;
36923;SDS011;22841;50.252;18.688;2023-03-16T09:18:36;17.10;;;7.57;;
36923;SDS011;22841;50.252;18.688;2023-03-16T09:21:03;19.75;;;9.07;;
36923;SDS011;22841;50.252;18.688;2023-03-16T09:23:31;13.80;;;6.82;;
36923;SDS011;22841;50.252;18.688;2023-03-16T09:25:59;13.32;;;5.88;;
36923;SDS011;22841;50.252;18.688;2023-03-16T09:28:28;12.82;;;6.20;;
36923;SDS011;22841;50.252;18.688;2023-03-16T09:30:56;18.38;;;6.15;;
36923;SDS011;22841;50.252;18.688;2023-03-16T09:33:23;11.30;;;6.00;;
36923;SDS011;22841;50.252;18.688;2023-03-16T09:35:51;13.35;;;5.93;;
36923;SDS011;22841;50.252;18.688;2023-03-16T09:38:17;9.82;;;4.70;;
36923;SDS011;22841;50.252;18.688;2023-03-16T09:40:44;13.13;;;4.68;;
36923;SDS011;22841;50.252;18.688;2023-03-16T09:43:16;8.23;;;4.05;;
36923;SDS011;22841;50.252;18.688;2023-03-16T09:46:16;8.40;;;4.63;;
36923;SDS011;22841;50.252;18.688;2023-03-16T09:48:56;7.97;;;4.40;;
36923;SDS011;22841;50.252;18.688;2023-03-16T09:51:37;13.43;;;6.35;;
36923;SDS011;22841;50.252;18.688;2023-03-16T09:57:16;12.38;;;3.28;;
36923;SDS011;22841;50.252;18.688;2023-03-16T09:59:50;6.88;;;4.00;;
36923;SDS011;22841;50.252;18.688;2023-03-16T10:05:16;16.42;;;5.32;;
36923;SDS011;22841;50.252;18.688;2023-03-16T10:13:25;13.77;;;4.63;;
36923;SDS011;22841;50.252;18.688;2023-03-16T10:16:10;15.38;;;5.30;;
36923;SDS011;22841;50.252;18.688;2023-03-16T10:18:44;9.80;;;3.97;;
36923;SDS011;22841;50.252;18.688;2023-03-16T10:21:17;10.95;;;4.10;;
36923;SDS011;22841;50.252;18.688;2023-03-16T10:23:44;11.43;;;5.47;;
36923;SDS011;22841;50.252;18.688;2023-03-16T10:26:14;13.07;;;4.38;;
36923;SDS011;22841;50.252;18.688;2023-03-16T10:28:53;10.43;;;4.80;;
36923;SDS011;22841;50.252;18.688;2023-03-16T10:31:20;15.07;;;6.78;;
36923;SDS011;22841;50.252;18.688;2023-03-16T10:33:48;14.75;;;6.30;;
36923;SDS011;22841;50.252;18.688;2023-03-16T10:36:26;24.10;;;8.95;;
36923;SDS011;22841;50.252;18.688;2023-03-16T10:38:58;20.92;;;10.15;;
36923;SDS011;22841;50.252;18.688;2023-03-16T10:41:29;11.75;;;5.15;;
36923;SDS011;22841;50.252;18.688;2023-03-16T10:46:34;15.45;;;4.55;;
36923;SDS011;22841;50.252;18.688;2023-03-16T10:49:15;10.85;;;4.70;;
36923;SDS011;22841;50.252;18.688;2023-03-16T10:51:47;13.00;;;5.93;;
36923;SDS011;22841;50.252;18.688;2023-03-16T10:54:14;22.40;;;5.60;;
36923;SDS011;22841;50.252;18.688;2023-03-16T10:56:46;11.45;;;4.50;;
36923;SDS011;22841;50.252;18.688;2023-03-16T10:59:21;12.48;;;4.90;;
36923;SDS011;22841;50.252;18.688;2023-03-16T11:01:52;11.15;;;3.63;;
36923;SDS011;22841;50.252;18.688;2023-03-16T11:04:19;10.77;;;4.22;;
36923;SDS011;22841;50.252;18.688;2023-03-16T11:06:53;10.55;;;3.88;;
36923;SDS011;22841;50.252;18.688;2023-03-16T11:09:38;9.77;;;4.20;;
36923;SDS011;22841;50.252;18.688;2023-03-16T11:12:23;9.00;;;3.83;;
36923;SDS011;22841;50.252;18.688;2023-03-16T11:14:51;10.85;;;4.10;;
36923;SDS011;22841;50.252;18.688;2023-03-16T11:17:31;18.05;;;5.47;;
36923;SDS011;22841;50.252;18.688;2023-03-16T11:20:02;7.60;;;3.13;;
36923;SDS011;22841;50.252;18.688;2023-03-16T11:22:36;10.45;;;3.47;;
36923;SDS011;22841;50.252;18.688;2023-03-16T11:30:40;21.13;;;3.88;;
36923;SDS011;22841;50.252;18.688;2023-03-16T11:33:08;9.25;;;2.40;;
36923;SDS011;22841;50.252;18.688;2023-03-16T11:35:39;13.15;;;3.35;;
36923;SDS011;22841;50.252;18.688;2023-03-16T11:38:32;17.95;;;3.67;;
36923;SDS011;22841;50.252;18.688;2023-03-16T11:40:59;24.90;;;5.50;;
36923;SDS011;22841;50.252;18.688;2023-03-16T11:43:38;12.90;;;3.95;;
36923;SDS011;22841;50.252;18.688;2023-03-16T11:46:18;12.02;;;3.72;;
36923;SDS011;22841;50.252;18.688;2023-03-16T11:57:59;6.43;;;3.05;;
36923;SDS011;22841;50.252;18.688;2023-03-16T12:00:54;11.98;;;3.17;;
36923;SDS011;22841;50.252;18.688;2023-03-16T12:12:27;7.20;;;2.78;;
36923;SDS011;22841;50.252;18.688;2023-03-16T12:15:48;12.25;;;2.83;;
36923;SDS011;22841;50.252;18.688;2023-03-16T12:17:59;10.52;;;3.63;;
36923;SDS011;22841;50.252;18.688;2023-03-16T12:23:33;13.63;;;4.60;;
36923;SDS011;22841;50.252;18.688;2023-03-16T12:26:05;10.82;;;4.35;;
36923;SDS011;22841;50.252;18.688;2023-03-16T12:28:33;13.75;;;3.97;;
36923;SDS011;22841;50.252;18.688;2023-03-16T12:33:44;19.77;;;4.37;;
36923;SDS011;22841;50.252;18.688;2023-03-16T12:39:23;9.27;;;3.92;;
36923;SDS011;22841;50.252;18.688;2023-03-16T12:45:01;15.10;;;4.35;;
36923;SDS011;22841;50.252;18.688;2023-03-16T12:47:43;16.60;;;3.88;;
36923;SDS011;22841;50.252;18.688;2023-03-16T12:50:13;14.07;;;2.80;;
36923;SDS011;22841;50.252;18.688;2023-03-16T12:52:44;4.28;;;2.30;;
36923;SDS011;22841;50.252;18.688;2023-03-16T12:57:40;6.70;;;3.28;;
36923;SDS011;22841;50.252;18.688;2023-03-16T13:00:08;8.07;;;3.38;;
36923;SDS011;22841;50.252;18.688;2023-03-16T13:02:36;8.07;;;2.67;;
36923;SDS011;22841;50.252;18.688;2023-03-16T13:05:14;8.30;;;3.08;;
36923;SDS011;22841;50.252;18.688;2023-03-16T13:07:46;12.93;;;4.20;;
36923;SDS011;22841;50.252;18.688;2023-03-16T13:12:42;13.70;;;3.05;;
36923;SDS011;22841;50.252;18.688;2023-03-16T13:17:46;7.68;;;3.55;;
36923;SDS011;22841;50.252;18.688;2023-03-16T13:20:32;11.13;;;4.40;;
36923;SDS011;22841;50.252;18.688;2023-03-16T13:23:08;7.07;;;3.85;;
36923;SDS011;22841;50.252;18.688;2023-03-16T13:26:03;10.20;;;3.42;;
36923;SDS011;22841;50.252;18.688;2023-03-16T13:28:36;12.00;;;4.65;;
36923;SDS011;22841;50.252;18.688;2023-03-16T13:31:04;18.05;;;3.85;;
36923;SDS011;22841;50.252;18.688;2023-03-16T13:33:43;15.65;;;4.82;;
36923;SDS011;22841;50.252;18.688;2023-03-16T13:36:11;18.63;;;7.13;;
36923;SDS011;22841;50.252;18.688;2023-03-16T13:38:38;11.27;;;4.10;;
36923;SDS011;22841;50.252;18.688;2023-03-16T13:41:09;9.00;;;3.47;;
36923;SDS011;22841;50.252;18.688;2023-03-16T13:43:40;9.35;;;3.20;;
36923;SDS011;22841;50.252;18.688;2023-03-16T13:46:18;5.55;;;2.65;;
36923;SDS011;22841;50.252;18.688;2023-03-16T13:48:47;9.82;;;3.05;;
36923;SDS011;22841;50.252;18.688;2023-03-16T13:51:15;7.63;;;3.20;;
36923;SDS011;22841;50.252;18.688;2023-03-16T13:53:43;9.43;;;2.80;;
36923;SDS011;22841;50.252;18.688;2023-03-16T13:56:14;12.35;;;4.70;;
36923;SDS011;22841;50.252;18.688;2023-03-16T13:58:44;9.48;;;4.15;;
36923;SDS011;22841;50.252;18.688;2023-03-16T14:01:29;10.48;;;3.38;;
36923;SDS011;22841;50.252;18.688;2023-03-16T14:03:57;6.55;;;2.88;;
36923;SDS011;22841;50.252;18.688;2023-03-16T14:06:26;18.98;;;5.63;;
36923;SDS011;22841;50.252;18.688;2023-03-16T14:08:56;12.80;;;4.43;;
36923;SDS011;22841;50.252;18.688;2023-03-16T14:11:26;9.88;;;3.20;;
36923;SDS011;22841;50.252;18.688;2023-03-16T14:13:53;13.35;;;4.88;;
36923;SDS011;22841;50.252;18.688;2023-03-16T14:16:24;6.95;;;3.30;;
36923;SDS011;22841;50.252;18.688;2023-03-16T14:21:24;5.60;;;2.80;;
36923;SDS011;22841;50.252;18.688;2023-03-16T14:23:53;10.57;;;3.40;;
36923;SDS011;22841;50.252;18.688;2023-03-16T14:26:26;16.05;;;4.57;;
36923;SDS011;22841;50.252;18.688;2023-03-16T14:29:05;7.97;;;3.13;;
36923;SDS011;22841;50.252;18.688;2023-03-16T14:31:54;13.23;;;2.55;;
36923;SDS011;22841;50.252;18.688;2023-03-16T14:34:28;11.13;;;4.05;;
36923;SDS011;22841;50.252;18.688;2023-03-16T14:37:12;10.05;;;4.60;;
36923;SDS011;22841;50.252;18.688;2023-03-16T14:39:41;7.93;;;3.80;;
36923;SDS011;22841;50.252;18.688;2023-03-16T14:42:17;34.70;;;12.75;;
36923;SDS011;22841;50.252;18.688;2023-03-16T14:44:55;21.83;;;8.13;;
36923;SDS011;22841;50.252;18.688;2023-03-16T14:50:00;20.95;;;7.80;;
36923;SDS011;22841;50.252;18.688;2023-03-16T14:52:31;12.40;;;4.85;;
36923;SDS011;22841;50.252;18.688;2023-03-16T14:54:58;11.20;;;4.05;;
36923;SDS011;22841;50.252;18.688;2023-03-16T14:57:27;17.90;;;4.90;;
36923;SDS011;22841;50.252;18.688;2023-03-16T14:59:54;14.38;;;5.20;;
36923;SDS011;22841;50.252;18.688;2023-03-16T15:02:29;14.45;;;3.53;;
36923;SDS011;22841;50.252;18.688;2023-03-16T15:04:57;9.68;;;3.20;;
36923;SDS011;22841;50.252;18.688;2023-03-16T15:07:26;14.63;;;4.70;;
36923;SDS011;22841;50.252;18.688;2023-03-16T15:10:00;12.57;;;3.83;;
36923;SDS011;22841;50.252;18.688;2023-03-16T15:12:31;8.57;;;3.58;;
36923;SDS011;22841;50.252;18.688;2023-03-16T15:14:59;8.57;;;3.10;;
36923;SDS011;22841;50.252;18.688;2023-03-16T15:17:41;9.17;;;3.20;;
36923;SDS011;22841;50.252;18.688;2023-03-16T15:20:15;5.00;;;1.92;;
36923;SDS011;22841;50.252;18.688;2023-03-16T15:22:44;14.63;;;4.45;;
36923;SDS011;22841;50.252;18.688;2023-03-16T15:28:01;24.02;;;8.38;;
36923;SDS011;22841;50.252;18.688;2023-03-16T15:30:38;24.50;;;8.68;;
36923;SDS011;22841;50.252;18.688;2023-03-16T15:33:05;17.50;;;5.53;;
36923;SDS011;22841;50.252;18.688;2023-03-16T15:35:32;63.38;;;20.88;;
36923;SDS011;22841;50.252;18.688;2023-03-16T15:37:58;43.78;;;17.90;;